Terminal Aerodrome Forecast
Issued by NWS Shreveport, LA

Home | Current Version | Previous Version | Text Only | Print | Product List | Glossary On
Versions: 1 2 3 4 5 6 7 8 9 10 11 12 13
000
FTUS44 KSHV 271120
TAFMLU
TAF
KMLU 271120Z 2712/2812 02005KT P6SM SCT250
     FM271300 02008KT P6SM SCT250
     FM280000 03003KT P6SM SKC=

USA.gov is the U.S. government's official web portal to all federal, state and local government web resources and services.